createdAt,value
2022-08-26T00:00:20.450Z,17.5
2022-08-26T00:01:30.994Z,17.5
2022-08-26T00:02:23.562Z,17.5
2022-08-26T00:03:16.528Z,17.6
2022-08-26T00:04:21.513Z,17.6
2022-08-26T00:05:19.889Z,17.6
2022-08-26T00:06:22.977Z,17.6
2022-08-26T00:07:18.514Z,17.6
2022-08-26T00:08:22.300Z,17.5
2022-08-26T00:09:21.666Z,17.6
2022-08-26T00:10:06.736Z,17.6
2022-08-26T00:11:30.774Z,17.7
2022-08-26T00:12:17.141Z,17.7
2022-08-26T00:13:16.347Z,17.7
2022-08-26T00:14:15.400Z,17.6
2022-08-26T00:15:18.546Z,17.4
2022-08-26T00:16:20.636Z,17.4
2022-08-26T00:17:18.195Z,17.4
2022-08-26T00:18:27.998Z,17.3
2022-08-26T00:19:18.915Z,17.3
2022-08-26T00:20:16.051Z,17.3
2022-08-26T00:21:21.073Z,17.3
2022-08-26T00:22:24.388Z,17.3
2022-08-26T00:23:18.273Z,17.3
2022-08-26T00:24:17.311Z,17.3
2022-08-26T00:25:18.853Z,17.3
2022-08-26T00:26:16.673Z,17.3
2022-08-26T00:27:17.841Z,17.3
2022-08-26T00:28:23.633Z,17.4
2022-08-26T00:29:19.693Z,17.4
2022-08-26T00:30:28.655Z,17.4
2022-08-26T00:31:19.203Z,17.4
2022-08-26T00:32:20.165Z,17.4
2022-08-26T00:33:22.606Z,17.4
2022-08-26T00:34:22.460Z,17.4
2022-08-26T00:35:18.085Z,17.5
2022-08-26T00:36:25.069Z,17.6
2022-08-26T00:37:20.463Z,17.5
2022-08-26T00:38:22.850Z,17.5
2022-08-26T00:39:22.901Z,17.6
2022-08-26T00:40:09.530Z,17.6
2022-08-26T00:41:24.269Z,17.6
2022-08-26T00:42:14.699Z,17.4
2022-08-26T00:43:22.076Z,17.3
2022-08-26T00:44:21.421Z,17.4
2022-08-26T00:45:21.900Z,17.3
2022-08-26T00:46:21.083Z,17.3
2022-08-26T00:47:23.907Z,17.3
2022-08-26T00:48:20.456Z,17.3
2022-08-26T00:49:18.428Z,17.3
2022-08-26T00:50:24.403Z,17.3
2022-08-26T00:51:20.228Z,17.2
2022-08-26T00:52:19.295Z,17.2
2022-08-26T00:53:30.011Z,17.3
2022-08-26T00:54:26.837Z,17.3
2022-08-26T00:55:24.395Z,17.3
2022-08-26T00:56:19.979Z,17.4
2022-08-26T00:57:21.459Z,17.4
2022-08-26T00:58:17.508Z,17.4
2022-08-26T00:59:21.732Z,17.4
2022-08-26T01:00:16.646Z,17.3
2022-08-26T01:01:17.124Z,17.4
2022-08-26T01:02:25.733Z,17.4
2022-08-26T01:03:18.484Z,17.4
2022-08-26T01:04:30.326Z,17.4
2022-08-26T01:05:19.312Z,17.3
2022-08-26T01:06:17.659Z,17.3
2022-08-26T01:07:23.646Z,17.2
2022-08-26T01:08:18.905Z,17.3
2022-08-26T01:09:21.532Z,17.3
2022-08-26T01:10:08.713Z,17.3
2022-08-26T01:11:22.820Z,17.1
2022-08-26T01:12:24.199Z,17.1
2022-08-26T01:13:25.986Z,17.1
2022-08-26T01:14:17.364Z,17.2
2022-08-26T01:15:24.544Z,17.3
2022-08-26T01:16:25.038Z,17.3
2022-08-26T01:17:24.752Z,17.3
2022-08-26T01:18:23.230Z,17.3
2022-08-26T01:19:20.725Z,17.3
2022-08-26T01:20:25.182Z,17.3
2022-08-26T01:21:19.756Z,17.3
2022-08-26T01:22:20.407Z,17.3
2022-08-26T01:23:23.773Z,17.1
2022-08-26T01:24:19.588Z,17.1
2022-08-26T01:25:15.773Z,17.1
2022-08-26T01:26:23.957Z,17.1
2022-08-26T01:27:17.504Z,17
2022-08-26T01:28:19.626Z,17.1
2022-08-26T01:29:22.376Z,17.1
2022-08-26T01:30:17.082Z,17.1
2022-08-26T01:31:19.736Z,17.1
2022-08-26T01:32:17.562Z,17.1
2022-08-26T01:33:15.648Z,17.2
2022-08-26T01:34:24.664Z,17.2
2022-08-26T01:35:20.284Z,17.2
2022-08-26T01:36:24.890Z,17.2
2022-08-26T01:37:20.230Z,17.3
2022-08-26T01:38:21.559Z,17.3
2022-08-26T01:39:21.983Z,17.2
2022-08-26T01:40:10.854Z,17.1
2022-08-26T01:41:31.195Z,17.1
2022-08-26T01:42:17.099Z,17.1
2022-08-26T01:43:20.664Z,17.1
2022-08-26T01:44:42.751Z,17.1
2022-08-26T01:45:08.382Z,17.1
2022-08-26T01:46:18.640Z,17.1
2022-08-26T01:47:22.281Z,17.1
2022-08-26T01:48:25.381Z,17.1
2022-08-26T01:49:19.940Z,17.1
2022-08-26T01:50:32.668Z,17.1
2022-08-26T01:51:22.402Z,17.1
2022-08-26T01:52:24.031Z,17
2022-08-26T01:53:23.429Z,17
2022-08-26T01:54:07.620Z,17.1
2022-08-26T01:55:38.215Z,17.1
2022-08-26T01:56:18.208Z,17
2022-08-26T01:57:17.732Z,17
2022-08-26T01:58:22.962Z,16.9
2022-08-26T01:59:21.505Z,17.1
2022-08-26T02:00:20.369Z,17.1
2022-08-26T02:01:20.109Z,17.1
2022-08-26T02:02:17.326Z,17.1
2022-08-26T02:03:21.222Z,17.1
2022-08-26T02:04:12.588Z,17.1
2022-08-26T02:05:22.020Z,17
2022-08-26T02:06:21.384Z,17
2022-08-26T02:07:20.409Z,17
2022-08-26T02:08:28.942Z,17
2022-08-26T02:09:11.843Z,17
2022-08-26T02:10:09.045Z,17
2022-08-26T02:11:23.489Z,17
2022-08-26T02:12:14.655Z,16.9
2022-08-26T02:13:21.546Z,16.9
2022-08-26T02:14:23.037Z,16.9
2022-08-26T02:15:19.279Z,16.9
2022-08-26T02:16:13.662Z,16.9
2022-08-26T02:17:23.267Z,16.9
2022-08-26T02:18:20.537Z,16.9
2022-08-26T02:19:21.572Z,17
2022-08-26T02:20:20.537Z,17
2022-08-26T02:21:35.030Z,17
2022-08-26T02:22:08.030Z,17
2022-08-26T02:23:28.491Z,17
2022-08-26T02:24:17.276Z,17
2022-08-26T02:25:21.564Z,17
2022-08-26T02:26:23.484Z,16.9
2022-08-26T02:27:25.052Z,16.9
2022-08-26T02:28:21.831Z,16.8
2022-08-26T02:29:23.379Z,16.8
2022-08-26T02:30:21.219Z,16.8
2022-08-26T02:31:21.927Z,16.9
2022-08-26T02:32:22.744Z,16.9
2022-08-26T02:33:17.687Z,16.9
2022-08-26T02:34:20.231Z,16.9
2022-08-26T02:35:24.492Z,17
2022-08-26T02:36:19.711Z,17.1
2022-08-26T02:37:27.484Z,17.1
2022-08-26T02:38:19.894Z,17.1
2022-08-26T02:39:26.704Z,17.1
2022-08-26T02:40:07.574Z,17.1
2022-08-26T02:41:25.051Z,17.1
2022-08-26T02:42:16.861Z,17.1
2022-08-26T02:43:17.406Z,17.1
2022-08-26T02:44:19.789Z,17
2022-08-26T02:45:27.872Z,17
2022-08-26T02:46:32.154Z,17
2022-08-26T02:47:19.357Z,17.1
2022-08-26T02:48:06.979Z,17.1
2022-08-26T02:49:21.119Z,17.1
2022-08-26T02:50:20.780Z,17.1
2022-08-26T02:51:17.803Z,17
2022-08-26T02:52:18.216Z,17
2022-08-26T02:53:27.766Z,17
2022-08-26T02:54:22.708Z,17.1
2022-08-26T02:55:19.553Z,17
2022-08-26T02:56:20.777Z,16.9
2022-08-26T02:57:26.426Z,16.9
2022-08-26T02:58:26.990Z,16.9
2022-08-26T02:59:11.120Z,16.8
2022-08-26T03:00:22.764Z,16.8
2022-08-26T03:01:16.015Z,16.8
2022-08-26T03:02:20.396Z,16.8
2022-08-26T03:03:16.272Z,16.8
2022-08-26T03:04:18.048Z,16.8
2022-08-26T03:05:17.993Z,16.7
2022-08-26T03:06:10.707Z,16.7
2022-08-26T03:07:18.979Z,16.8
2022-08-26T03:08:20.729Z,16.8
2022-08-26T03:09:23.355Z,16.8
2022-08-26T03:10:13.252Z,16.8
2022-08-26T03:11:33.265Z,16.8
2022-08-26T03:12:18.115Z,16.7
2022-08-26T03:13:17.507Z,16.6
2022-08-26T03:14:22.857Z,16.6
2022-08-26T03:15:21.680Z,16.6
2022-08-26T03:16:16.358Z,16.6
2022-08-26T03:17:24.397Z,16.6
2022-08-26T03:18:22.607Z,16.6
2022-08-26T03:19:21.894Z,16.6
2022-08-26T03:20:26.093Z,16.5
2022-08-26T03:21:06.878Z,16.5
2022-08-26T03:22:29.153Z,16.5
2022-08-26T03:23:23.125Z,16.6
2022-08-26T03:24:23.801Z,16.6
2022-08-26T03:25:25.887Z,16.6
2022-08-26T03:26:22.208Z,16.6
2022-08-26T03:27:22.881Z,16.6
2022-08-26T03:28:14.989Z,16.6
2022-08-26T03:29:18.643Z,16.6
2022-08-26T03:30:22.141Z,16.8
2022-08-26T03:31:28.945Z,16.8
2022-08-26T03:32:20.349Z,16.7
2022-08-26T03:33:20.135Z,16.7
2022-08-26T03:34:19.855Z,16.6
2022-08-26T03:35:26.721Z,16.6
2022-08-26T03:36:21.330Z,16.6
2022-08-26T03:37:21.263Z,16.6
2022-08-26T03:38:16.628Z,16.6
2022-08-26T03:39:23.590Z,16.6
2022-08-26T03:40:07.777Z,16.6
2022-08-26T03:41:20.660Z,16.5
2022-08-26T03:42:23.545Z,16.5
2022-08-26T03:43:20.210Z,16.5
2022-08-26T03:44:19.504Z,16.6
2022-08-26T03:45:20.259Z,16.5
2022-08-26T03:46:17.582Z,16.5
2022-08-26T03:47:19.925Z,16.5
2022-08-26T03:48:22.983Z,16.4
2022-08-26T03:49:17.260Z,16.5
2022-08-26T03:50:25.139Z,16.4
2022-08-26T03:51:23.198Z,16.4
2022-08-26T03:52:16.339Z,16.3
2022-08-26T03:53:24.753Z,16.4
2022-08-26T03:54:21.279Z,16.4
2022-08-26T03:55:29.320Z,16.4
2022-08-26T03:56:20.030Z,16.4
2022-08-26T03:57:24.274Z,16.4
2022-08-26T03:58:20.794Z,16.4
2022-08-26T03:59:16.750Z,16.5
2022-08-26T04:00:22.748Z,16.6
2022-08-26T04:01:21.159Z,16.5
2022-08-26T04:02:22.206Z,16.5
2022-08-26T04:03:23.777Z,16.6
2022-08-26T04:04:48.669Z,16.6
2022-08-26T04:06:18.984Z,16.6
2022-08-26T04:07:17.456Z,16.6
2022-08-26T04:08:18.029Z,16.6
2022-08-26T04:09:29.684Z,16.7
2022-08-26T04:10:09.193Z,16.7
2022-08-26T04:11:24.358Z,16.7
2022-08-26T04:12:17.988Z,16.7
2022-08-26T04:13:18.134Z,16.7
2022-08-26T04:14:22.304Z,16.8
2022-08-26T04:15:22.336Z,16.8
2022-08-26T04:16:21.903Z,16.7
2022-08-26T04:17:20.988Z,16.7
2022-08-26T04:18:14.392Z,16.6
2022-08-26T04:19:15.927Z,16.4
2022-08-26T04:20:27.968Z,16.5
2022-08-26T04:21:20.434Z,16.5
2022-08-26T04:22:26.065Z,16.5
2022-08-26T04:23:24.115Z,16.6
2022-08-26T04:24:19.871Z,16.6
2022-08-26T04:25:28.519Z,16.6
2022-08-26T04:26:09.677Z,16.6
2022-08-26T04:27:23.463Z,16.6
2022-08-26T04:28:17.593Z,16.5
2022-08-26T04:29:19.383Z,16.5
2022-08-26T04:30:20.927Z,16.6
2022-08-26T04:31:20.976Z,16.6
2022-08-26T04:32:16.418Z,16.6
2022-08-26T04:33:17.679Z,16.6
2022-08-26T04:34:21.559Z,16.5
2022-08-26T04:35:31.610Z,16.5
2022-08-26T04:36:22.295Z,16.5
2022-08-26T04:37:17.833Z,16.5
2022-08-26T04:38:21.177Z,16.5
2022-08-26T04:39:22.892Z,16.6
2022-08-26T04:40:10.814Z,16.6
2022-08-26T04:41:23.773Z,16.7
2022-08-26T04:42:28.131Z,16.8
2022-08-26T04:43:17.981Z,16.8
2022-08-26T04:44:19.434Z,16.8
2022-08-26T04:45:22.711Z,16.7
2022-08-26T04:46:21.146Z,16.6
2022-08-26T04:47:15.462Z,16.6
2022-08-26T04:48:22.393Z,16.7
2022-08-26T04:49:22.527Z,16.7
2022-08-26T04:50:23.641Z,16.7
2022-08-26T04:51:18.307Z,16.8
2022-08-26T04:52:20.294Z,16.8
2022-08-26T04:53:19.346Z,16.7
2022-08-26T04:54:20.599Z,16.7
2022-08-26T04:55:39.687Z,16.8
2022-08-26T04:56:16.381Z,16.8
2022-08-26T04:57:17.750Z,16.9
2022-08-26T04:58:21.113Z,16.9
2022-08-26T04:59:24.571Z,16.8
2022-08-26T05:00:21.137Z,16.8
2022-08-26T05:01:19.355Z,16.8
2022-08-26T05:02:20.236Z,16.8
2022-08-26T05:03:22.009Z,16.8
2022-08-26T05:04:24.205Z,16.8
2022-08-26T05:05:19.349Z,16.8
2022-08-26T05:06:26.663Z,16.8
2022-08-26T05:07:24.481Z,16.7
2022-08-26T05:08:24.611Z,16.7
2022-08-26T05:09:23.314Z,16.9
2022-08-26T05:10:10.847Z,16.9
2022-08-26T05:11:20.471Z,16.9
2022-08-26T05:12:18.518Z,16.9
2022-08-26T05:13:17.635Z,16.9
2022-08-26T05:14:20.484Z,16.9
2022-08-26T05:15:24.046Z,16.9
2022-08-26T05:16:22.386Z,16.9
2022-08-26T05:17:19.022Z,16.9
2022-08-26T05:18:19.956Z,17
2022-08-26T05:19:23.360Z,17
2022-08-26T05:20:17.138Z,17
2022-08-26T05:21:18.370Z,17.1
2022-08-26T05:22:22.535Z,17.1
2022-08-26T05:23:20.241Z,17.1
2022-08-26T05:24:23.981Z,17.1
2022-08-26T05:25:16.638Z,17.1
2022-08-26T05:26:25.752Z,17.1
2022-08-26T05:27:16.063Z,17.2
2022-08-26T05:28:21.994Z,17.2
2022-08-26T05:29:18.763Z,17.1
2022-08-26T05:30:15.648Z,17.1
2022-08-26T05:31:19.975Z,17.1
2022-08-26T05:32:19.913Z,17.1
2022-08-26T05:33:17.032Z,17.1
2022-08-26T05:34:17.410Z,17.1
2022-08-26T05:35:20.100Z,17.2
2022-08-26T05:36:23.808Z,17.2
2022-08-26T05:37:19.109Z,17.2
2022-08-26T05:38:16.842Z,17.3
2022-08-26T05:39:25.681Z,17.3
2022-08-26T05:40:08.146Z,17.3
2022-08-26T05:41:20.824Z,17.4
2022-08-26T05:42:17.326Z,17.5
2022-08-26T05:43:22.231Z,17.5
2022-08-26T05:44:20.540Z,17.5
2022-08-26T05:45:24.932Z,17.5
2022-08-26T05:46:23.866Z,17.5
2022-08-26T05:47:16.867Z,17.5
2022-08-26T05:48:18.690Z,17.5
2022-08-26T05:49:31.129Z,17.5
2022-08-26T05:50:22.300Z,17.5
2022-08-26T05:51:18.992Z,17.6
2022-08-26T05:52:21.276Z,17.6
2022-08-26T05:53:22.467Z,17.7
2022-08-26T05:54:24.597Z,17.8
2022-08-26T05:55:18.310Z,17.9
2022-08-26T05:56:19.788Z,17.9
2022-08-26T05:57:17.724Z,17.9
2022-08-26T05:58:21.608Z,18
2022-08-26T05:59:23.999Z,18
2022-08-26T06:00:19.920Z,18
2022-08-26T06:01:23.577Z,18.1
2022-08-26T06:02:18.819Z,18.1
2022-08-26T06:03:26.663Z,18.1
2022-08-26T06:04:16.040Z,18.1
2022-08-26T06:05:24.119Z,18.2
2022-08-26T06:06:27.272Z,18.2
2022-08-26T06:07:18.481Z,18.2
2022-08-26T06:08:24.603Z,18.3
2022-08-26T06:09:23.584Z,18.3
2022-08-26T06:10:35.552Z,18.3
2022-08-26T06:11:22.593Z,18.4
2022-08-26T06:12:22.683Z,18.4
2022-08-26T06:13:21.678Z,18.4
2022-08-26T06:14:17.697Z,18.4
2022-08-26T06:15:21.464Z,18.4
2022-08-26T06:16:21.368Z,18.5
2022-08-26T06:17:18.250Z,18.5
2022-08-26T06:18:19.802Z,18.5
2022-08-26T06:19:20.975Z,18.5
2022-08-26T06:20:24.175Z,18.6
2022-08-26T06:21:24.431Z,18.6
2022-08-26T06:22:23.976Z,18.6
2022-08-26T06:23:18.345Z,18.6
2022-08-26T06:24:17.939Z,18.6
2022-08-26T06:25:16.408Z,18.7
2022-08-26T06:26:17.758Z,18.7
2022-08-26T06:27:19.543Z,18.7
2022-08-26T06:28:17.762Z,18.7
2022-08-26T06:29:28.531Z,18.7
2022-08-26T06:30:20.692Z,18.8
2022-08-26T06:31:22.110Z,18.8
2022-08-26T06:32:17.382Z,18.8
2022-08-26T06:33:19.522Z,18.8
2022-08-26T06:34:21.666Z,18.8
2022-08-26T06:35:23.122Z,18.8
2022-08-26T06:36:17.291Z,18.8
2022-08-26T06:37:18.030Z,18.8
2022-08-26T06:38:17.202Z,18.8
2022-08-26T06:39:24.582Z,18.9
2022-08-26T06:40:08.249Z,18.9
2022-08-26T06:41:22.675Z,18.9
2022-08-26T06:42:16.057Z,18.9
2022-08-26T06:43:23.182Z,19.1
2022-08-26T06:44:17.376Z,19.1
2022-08-26T06:45:19.272Z,19.1
2022-08-26T06:46:09.522Z,19.1
2022-08-26T06:47:08.742Z,19.2
2022-08-26T06:48:28.838Z,19.2
2022-08-26T06:49:28.949Z,19.2
2022-08-26T06:50:18.955Z,19.2
2022-08-26T06:51:09.882Z,19.2
2022-08-26T06:52:24.516Z,19.3
2022-08-26T06:53:20.940Z,19.3
2022-08-26T06:54:21.523Z,19.4
2022-08-26T06:55:14.666Z,19.4
2022-08-26T06:56:19.051Z,19.4
2022-08-26T06:57:24.258Z,19.4
2022-08-26T06:58:21.842Z,19.4
2022-08-26T06:59:17.029Z,19.4
2022-08-26T07:00:16.034Z,19.3
2022-08-26T07:01:20.359Z,19.3
2022-08-26T07:02:22.886Z,19.4
2022-08-26T07:03:10.132Z,19.5
2022-08-26T07:04:27.776Z,19.5
2022-08-26T07:05:21.240Z,19.5
2022-08-26T07:06:18.670Z,19.7
2022-08-26T07:07:26.921Z,19.8
2022-08-26T07:08:19.152Z,19.8
2022-08-26T07:09:31.686Z,19.8
2022-08-26T07:10:07.971Z,19.9
2022-08-26T07:11:20.897Z,19.9
2022-08-26T07:12:17.822Z,19.9
2022-08-26T07:13:17.862Z,19.9
2022-08-26T07:14:26.463Z,20
2022-08-26T07:15:33.551Z,20
2022-08-26T07:16:18.777Z,20.1
2022-08-26T07:17:29.412Z,20.2
2022-08-26T07:18:18.612Z,20.2
2022-08-26T07:19:32.986Z,20.2
2022-08-26T07:20:16.085Z,20.3
2022-08-26T07:21:24.086Z,20.3
2022-08-26T07:22:20.506Z,20.3
2022-08-26T07:23:21.445Z,20.3
2022-08-26T07:24:28.458Z,20.3
2022-08-26T07:25:23.425Z,20.3
2022-08-26T07:26:09.902Z,20.5
2022-08-26T07:27:23.050Z,20.5
2022-08-26T07:28:19.081Z,20.4
2022-08-26T07:29:19.210Z,20.6
2022-08-26T07:30:18.991Z,20.6
2022-08-26T07:31:16.326Z,20.6
2022-08-26T07:32:20.374Z,20.8
2022-08-26T07:33:18.038Z,20.8
2022-08-26T07:34:16.218Z,20.8
2022-08-26T07:35:21.654Z,20.7
2022-08-26T07:36:18.425Z,20.8
2022-08-26T07:37:22.255Z,20.8
2022-08-26T07:38:22.335Z,20.8
2022-08-26T07:39:24.441Z,20.9
2022-08-26T07:40:11.462Z,20.9
2022-08-26T07:41:23.579Z,21.1
2022-08-26T07:42:20.449Z,21.2
2022-08-26T07:43:17.018Z,21.2
2022-08-26T07:44:17.647Z,21.3
2022-08-26T07:45:23.226Z,21.4
2022-08-26T07:46:27.358Z,21.3
2022-08-26T07:47:29.561Z,21.3
2022-08-26T07:48:23.498Z,21.3
2022-08-26T07:49:24.914Z,21.3
2022-08-26T07:50:21.402Z,21.3
2022-08-26T07:51:13.895Z,21.3
2022-08-26T07:52:30.063Z,21.4
2022-08-26T07:53:22.213Z,21.4
2022-08-26T07:54:18.640Z,21.4
2022-08-26T07:55:18.540Z,21.3
2022-08-26T07:56:29.216Z,21.3
2022-08-26T07:57:26.440Z,21.3
2022-08-26T07:58:20.984Z,21.3
2022-08-26T07:59:19.395Z,21.4
2022-08-26T08:00:21.638Z,21.5
2022-08-26T08:01:22.992Z,21.6
2022-08-26T08:02:15.396Z,21.6
2022-08-26T08:03:16.216Z,21.6
2022-08-26T08:04:29.673Z,21.6
2022-08-26T08:05:21.488Z,21.7
2022-08-26T08:06:29.020Z,21.8
2022-08-26T08:07:17.802Z,21.8
2022-08-26T08:08:33.609Z,21.7
2022-08-26T08:09:29.151Z,21.9
2022-08-26T08:10:13.509Z,21.9
2022-08-26T08:11:16.600Z,21.9
2022-08-26T08:12:22.028Z,22.1
2022-08-26T08:13:22.839Z,22.1
2022-08-26T08:14:24.359Z,22.1
2022-08-26T08:15:21.966Z,22.1
2022-08-26T08:16:19.234Z,22.1
2022-08-26T08:17:31.910Z,22.1
2022-08-26T08:18:17.637Z,22.1
2022-08-26T08:19:39.149Z,22
2022-08-26T08:20:16.530Z,22.1
2022-08-26T08:21:29.050Z,22.1
2022-08-26T08:22:23.396Z,22.1
2022-08-26T08:23:26.198Z,22.1
2022-08-26T08:24:18.023Z,22.1
2022-08-26T08:25:18.170Z,22.1
2022-08-26T08:26:22.671Z,22.3
2022-08-26T08:27:26.162Z,22.4
2022-08-26T08:28:23.390Z,22.4
2022-08-26T08:29:17.028Z,22.4
2022-08-26T08:30:27.069Z,22.3
2022-08-26T08:31:28.478Z,22.3
2022-08-26T08:32:21.065Z,22.3
2022-08-26T08:33:17.375Z,22.5
2022-08-26T08:34:30.055Z,22.6
2022-08-26T08:35:16.536Z,22.6
2022-08-26T08:36:22.758Z,22.6
2022-08-26T08:37:16.802Z,22.7
2022-08-26T08:38:21.639Z,22.8
2022-08-26T08:39:08.552Z,22.8
2022-08-26T08:40:15.956Z,22.7
2022-08-26T08:41:27.415Z,22.8
2022-08-26T08:42:17.752Z,22.9
2022-08-26T08:43:23.711Z,22.8
2022-08-26T08:45:25.413Z,22.8
2022-08-26T08:46:21.374Z,22.7
2022-08-26T08:47:18.532Z,22.6
2022-08-26T08:48:29.358Z,22.6
2022-08-26T08:49:18.535Z,22.6
2022-08-26T08:50:24.395Z,22.7
2022-08-26T08:51:20.276Z,22.7
2022-08-26T08:52:24.211Z,22.8
2022-08-26T08:53:22.154Z,22.8
2022-08-26T08:54:17.827Z,22.8
2022-08-26T08:55:22.850Z,22.9
2022-08-26T08:56:16.880Z,22.9
2022-08-26T08:57:19.744Z,22.9
2022-08-26T08:58:23.299Z,22.9
2022-08-26T08:59:16.186Z,22.9
2022-08-26T09:00:18.185Z,22.9
2022-08-26T09:01:17.470Z,22.9
2022-08-26T09:02:24.575Z,22.9
2022-08-26T09:03:22.723Z,23
2022-08-26T09:04:28.311Z,23.1
2022-08-26T09:05:20.008Z,23.1
2022-08-26T09:06:20.553Z,23.1
2022-08-26T09:07:21.935Z,23.2
2022-08-26T09:08:23.899Z,23.1
2022-08-26T09:09:22.283Z,23.1
2022-08-26T09:10:13.394Z,23.1
2022-08-26T09:11:19.419Z,23.3
2022-08-26T09:12:29.560Z,23.3
2022-08-26T09:13:28.088Z,23.3
2022-08-26T09:14:22.942Z,23.3
2022-08-26T09:15:20.937Z,23.3
2022-08-26T09:16:24.463Z,23.3
2022-08-26T09:17:18.511Z,23.4
2022-08-26T09:18:23.469Z,23.3
2022-08-26T09:19:23.273Z,23.3
2022-08-26T09:20:16.878Z,23.3
2022-08-26T09:21:25.438Z,23.1
2022-08-26T09:22:17.382Z,23.2
2022-08-26T09:23:22.662Z,23.2
2022-08-26T09:24:20.250Z,23.1
2022-08-26T09:25:16.703Z,23.1
2022-08-26T09:26:19.347Z,23.1
2022-08-26T09:27:19.745Z,23.1
2022-08-26T09:28:17.844Z,23.1
2022-08-26T09:29:17.668Z,23.3
2022-08-26T09:30:18.306Z,23.3
2022-08-26T09:31:21.167Z,23.4
2022-08-26T09:32:16.371Z,23.4
2022-08-26T09:33:21.658Z,23.3
2022-08-26T09:34:21.871Z,23.3
2022-08-26T09:35:28.069Z,23.3
2022-08-26T09:36:22.480Z,23.3
2022-08-26T09:37:20.692Z,23.4
2022-08-26T09:38:16.760Z,23.4
2022-08-26T09:39:25.143Z,23.6
2022-08-26T09:40:09.471Z,23.6
2022-08-26T09:41:20.314Z,23.6
2022-08-26T09:42:18.936Z,23.5
2022-08-26T09:43:24.977Z,23.6
2022-08-26T09:44:23.882Z,23.7
2022-08-26T09:45:21.437Z,23.7
2022-08-26T09:46:20.247Z,23.7
2022-08-26T09:47:23.774Z,23.6
2022-08-26T09:48:21.807Z,23.8
2022-08-26T09:49:23.309Z,23.8
2022-08-26T09:50:30.944Z,23.9
2022-08-26T09:51:20.906Z,23.8
2022-08-26T09:52:16.778Z,23.8
2022-08-26T09:53:25.276Z,23.9
2022-08-26T09:54:32.429Z,23.9
2022-08-26T09:55:18.819Z,24
2022-08-26T09:56:18.832Z,24
2022-08-26T09:57:19.850Z,23.9
2022-08-26T09:58:19.793Z,23.8
2022-08-26T09:59:20.950Z,23.8
2022-08-26T10:00:18.761Z,23.8
2022-08-26T10:01:17.450Z,23.8
2022-08-26T10:02:19.764Z,23.8
2022-08-26T10:03:23.670Z,23.8
2022-08-26T10:04:28.889Z,23.8
2022-08-26T10:05:17.110Z,23.8
2022-08-26T10:06:23.330Z,23.8
2022-08-26T10:07:20.187Z,23.6
2022-08-26T10:08:19.874Z,23.5
2022-08-26T10:09:24.231Z,23.5
2022-08-26T10:10:07.315Z,23.5
2022-08-26T10:11:26.700Z,23.6
2022-08-26T10:12:20.985Z,23.6
2022-08-26T10:13:19.402Z,23.6
2022-08-26T10:14:17.297Z,23.6
2022-08-26T10:15:16.000Z,23.6
2022-08-26T10:16:23.870Z,23.6
2022-08-26T10:17:24.943Z,23.6
2022-08-26T10:18:24.872Z,23.6
2022-08-26T10:19:21.800Z,23.6
2022-08-26T10:20:28.410Z,23.6
2022-08-26T10:21:23.748Z,23.6
2022-08-26T10:22:22.588Z,23.5
2022-08-26T10:23:16.157Z,23.5
2022-08-26T10:24:22.026Z,23.5
2022-08-26T10:25:15.326Z,23.5
2022-08-26T10:26:24.302Z,23.6
2022-08-26T10:27:16.263Z,23.6
2022-08-26T10:28:24.982Z,23.5
2022-08-26T10:29:15.430Z,23.4
2022-08-26T10:30:14.145Z,23.4
2022-08-26T10:31:22.988Z,23.5
2022-08-26T10:32:18.295Z,23.6
2022-08-26T10:33:22.388Z,23.6
2022-08-26T10:34:23.296Z,23.5
2022-08-26T10:35:24.125Z,23.4
2022-08-26T10:36:24.350Z,23.4
2022-08-26T10:37:23.118Z,23.4
2022-08-26T10:38:15.141Z,23.4
2022-08-26T10:39:25.851Z,23.4
2022-08-26T10:40:07.991Z,23.4
2022-08-26T10:41:22.611Z,23.6
2022-08-26T10:42:16.845Z,23.7
2022-08-26T10:43:27.766Z,23.8
2022-08-26T10:44:18.664Z,23.8
2022-08-26T10:45:24.029Z,23.8
2022-08-26T10:46:31.534Z,23.8
2022-08-26T10:47:17.787Z,23.9
2022-08-26T10:48:40.378Z,23.9
2022-08-26T10:49:08.848Z,23.9
2022-08-26T10:50:24.979Z,23.9
2022-08-26T10:51:16.831Z,23.9
2022-08-26T10:52:20.825Z,23.9
2022-08-26T10:53:34.559Z,23.9
2022-08-26T10:54:19.620Z,23.9
2022-08-26T10:55:22.313Z,24
2022-08-26T10:56:23.513Z,24
2022-08-26T10:57:24.894Z,24.1
2022-08-26T10:58:32.202Z,24.1
2022-08-26T10:59:19.044Z,24.2
2022-08-26T11:00:08.648Z,24.3
2022-08-26T11:01:22.662Z,24.4
2022-08-26T11:02:27.230Z,24.4
2022-08-26T11:03:26.497Z,24.4
2022-08-26T11:04:26.681Z,24.4
2022-08-26T11:05:17.358Z,24.4
2022-08-26T11:06:23.271Z,24.4
2022-08-26T11:07:17.485Z,24.3
2022-08-26T11:08:22.787Z,24.4
2022-08-26T11:09:10.887Z,24.4
2022-08-26T11:10:17.113Z,24.7
2022-08-26T11:11:23.570Z,24.8
2022-08-26T11:12:19.492Z,24.8
2022-08-26T11:13:23.373Z,24.9
2022-08-26T11:14:53.816Z,25
2022-08-26T11:15:17.752Z,25
2022-08-26T11:16:18.524Z,25.3
2022-08-26T11:17:25.494Z,25.4
2022-08-26T11:18:10.560Z,25.7
2022-08-26T11:20:21.983Z,25.9
2022-08-26T11:21:31.793Z,26.1
2022-08-26T11:22:20.103Z,26.1
2022-08-26T11:23:25.858Z,26.4
2022-08-26T11:24:22.359Z,26.4
2022-08-26T11:25:24.419Z,26.3
2022-08-26T11:26:58.195Z,26.3
2022-08-26T11:27:08.435Z,26.3
2022-08-26T11:28:20.005Z,26.3
2022-08-26T11:29:20.394Z,26.5
2022-08-26T11:30:26.232Z,26.8
2022-08-26T11:31:21.046Z,27.1
2022-08-26T11:32:19.613Z,27.1
2022-08-26T11:33:22.451Z,27.2
2022-08-26T11:34:27.657Z,27.2
2022-08-26T11:35:10.197Z,27
2022-08-26T11:36:18.266Z,27.2
2022-08-26T11:37:25.234Z,27.2
2022-08-26T11:38:23.089Z,27.2
2022-08-26T11:39:25.020Z,27.6
2022-08-26T11:40:08.825Z,27.6
2022-08-26T11:41:14.552Z,27.6
2022-08-26T11:42:25.279Z,27.6
2022-08-26T11:43:15.795Z,27.6
2022-08-26T11:44:19.725Z,27.9
2022-08-26T11:45:19.019Z,27.7
2022-08-26T11:46:18.588Z,27.8
2022-08-26T11:47:23.178Z,28
2022-08-26T11:48:18.710Z,27.9
2022-08-26T11:50:12.241Z,28.1
2022-08-26T11:51:26.051Z,28.1
2022-08-26T11:52:24.871Z,28.1
2022-08-26T11:53:25.005Z,28.3
2022-08-26T11:54:37.037Z,28.4
2022-08-26T11:55:16.346Z,28.4
2022-08-26T11:56:23.520Z,28.8
2022-08-26T11:57:24.841Z,28.4
2022-08-26T11:58:17.611Z,28.4
2022-08-26T11:59:18.577Z,28.1
2022-08-26T12:00:26.529Z,28.4
2022-08-26T12:01:19.136Z,28.4
2022-08-26T12:02:20.121Z,28.1
2022-08-26T12:03:25.175Z,28.3
2022-08-26T12:04:22.526Z,28.3
2022-08-26T12:05:20.024Z,28.2
2022-08-26T12:06:18.576Z,27.9
2022-08-26T12:07:27.910Z,27.8
2022-08-26T12:08:20.905Z,27.8
2022-08-26T12:09:25.541Z,27.6
2022-08-26T12:10:07.912Z,27.6
2022-08-26T12:11:20.826Z,27.5
2022-08-26T12:12:17.911Z,27.8
2022-08-26T12:13:20.053Z,28.1
2022-08-26T12:14:22.547Z,28.1
2022-08-26T12:15:23.610Z,28.1
2022-08-26T12:16:20.115Z,28.1
2022-08-26T12:17:22.428Z,27.9
2022-08-26T12:18:31.957Z,27.9
2022-08-26T12:19:22.191Z,27.8
2022-08-26T12:20:22.234Z,27.7
2022-08-26T12:21:18.353Z,27.7
2022-08-26T12:22:25.103Z,27.7
2022-08-26T12:23:18.207Z,27.8
2022-08-26T12:24:15.754Z,27.8
2022-08-26T12:25:23.540Z,28
2022-08-26T12:26:20.367Z,27.5
2022-08-26T12:27:18.456Z,27.6
2022-08-26T12:28:25.258Z,27.7
2022-08-26T12:29:31.166Z,27.8
2022-08-26T12:30:21.432Z,27.8
2022-08-26T12:31:19.581Z,27.8
2022-08-26T12:32:25.231Z,27.8
2022-08-26T12:33:26.896Z,27.8
2022-08-26T12:34:22.460Z,28.2
2022-08-26T12:35:21.723Z,28.1
2022-08-26T12:36:17.023Z,28.1
2022-08-26T12:37:21.042Z,28.3
2022-08-26T12:38:20.781Z,28.3
2022-08-26T12:39:25.397Z,28.2
2022-08-26T12:40:09.732Z,28.2
2022-08-26T12:41:16.505Z,28.2
2022-08-26T12:42:24.779Z,28.1
2022-08-26T12:43:15.967Z,28.1
2022-08-26T12:44:18.064Z,27.6
2022-08-26T12:45:25.326Z,27.6
2022-08-26T12:46:19.510Z,27.6
2022-08-26T12:47:44.942Z,27
2022-08-26T12:48:14.175Z,27
2022-08-26T12:49:17.521Z,26.9
2022-08-26T12:50:16.706Z,26.8
2022-08-26T12:51:18.717Z,26.7
2022-08-26T12:52:24.892Z,26.8
2022-08-26T12:53:21.744Z,26.8
2022-08-26T12:54:19.497Z,26.8
2022-08-26T12:55:24.349Z,26.8
2022-08-26T12:56:22.083Z,26.8
2022-08-26T12:57:20.908Z,26.8
2022-08-26T12:58:26.019Z,27
2022-08-26T12:59:24.637Z,26.9
2022-08-26T13:00:30.446Z,26.9
2022-08-26T13:01:19.865Z,26.9
2022-08-26T13:02:20.111Z,27
2022-08-26T13:03:25.757Z,26.9
2022-08-26T13:04:19.433Z,26.9
2022-08-26T13:05:17.946Z,26.9
2022-08-26T13:06:20.698Z,27
2022-08-26T13:07:23.773Z,27.1
2022-08-26T13:08:23.940Z,27.1
2022-08-26T13:09:25.524Z,27.1
2022-08-26T13:10:08.717Z,27.1
2022-08-26T13:11:15.229Z,27.6
2022-08-26T13:12:24.035Z,27.7
2022-08-26T13:13:22.526Z,27.7
2022-08-26T13:14:28.088Z,27.7
2022-08-26T13:15:22.286Z,27.4
2022-08-26T13:16:18.414Z,27.4
2022-08-26T13:17:19.969Z,27.9
2022-08-26T13:18:16.499Z,27.9
2022-08-26T13:19:21.456Z,28.3
2022-08-26T13:20:09.034Z,28.3
2022-08-26T13:21:21.851Z,28.4
2022-08-26T13:22:22.649Z,28.4
2022-08-26T13:23:22.843Z,28.4
2022-08-26T13:24:18.775Z,28.8
2022-08-26T13:25:32.445Z,28.3